sensor_id;sensor_type;location;lat;lon;timestamp;pressure;altitude;pressure_sealevel;temperature;humidity
23339;BME280;11841;49.368;20.962;2023-02-20T00:00:10;96060.09;;;6.15;54.91
23339;BME280;11841;49.368;20.962;2023-02-20T00:02:41;96056.56;;;6.08;54.96
23339;BME280;11841;49.368;20.962;2023-02-20T00:05:07;96053.47;;;6.04;55.36
23339;BME280;11841;49.368;20.962;2023-02-20T00:07:34;96053.63;;;6.03;55.26
23339;BME280;11841;49.368;20.962;2023-02-20T00:10:00;96055.16;;;5.83;55.55
23339;BME280;11841;49.368;20.962;2023-02-20T00:12:26;96034.03;;;5.91;55.24
23339;BME280;11841;49.368;20.962;2023-02-20T00:14:53;96044.63;;;5.83;55.19
23339;BME280;11841;49.368;20.962;2023-02-20T00:17:19;96046.13;;;6.00;55.14
23339;BME280;11841;49.368;20.962;2023-02-20T00:19:46;96042.94;;;5.90;55.05
23339;BME280;11841;49.368;20.962;2023-02-20T00:22:12;96056.09;;;6.04;54.90
23339;BME280;11841;49.368;20.962;2023-02-20T00:24:39;96044.91;;;5.88;55.14
23339;BME280;11841;49.368;20.962;2023-02-20T00:27:05;96047.91;;;5.99;55.30
23339;BME280;11841;49.368;20.962;2023-02-20T00:29:32;96036.66;;;5.91;54.84
23339;BME280;11841;49.368;20.962;2023-02-20T00:31:59;96039.84;;;6.01;55.22
23339;BME280;11841;49.368;20.962;2023-02-20T00:34:28;96052.63;;;5.89;54.55
23339;BME280;11841;49.368;20.962;2023-02-20T00:36:54;96038.22;;;6.00;54.51
23339;BME280;11841;49.368;20.962;2023-02-20T00:39:20;96042.03;;;6.12;54.44
23339;BME280;11841;49.368;20.962;2023-02-20T00:41:47;96055.09;;;6.20;54.94
23339;BME280;11841;49.368;20.962;2023-02-20T00:44:14;96061.91;;;6.14;55.05
23339;BME280;11841;49.368;20.962;2023-02-20T00:46:41;96065.47;;;6.07;54.88
23339;BME280;11841;49.368;20.962;2023-02-20T00:49:07;96071.00;;;5.75;54.72
23339;BME280;11841;49.368;20.962;2023-02-20T00:51:34;96065.09;;;5.73;55.02
23339;BME280;11841;49.368;20.962;2023-02-20T00:54:01;96062.88;;;5.62;55.84
23339;BME280;11841;49.368;20.962;2023-02-20T00:56:27;96065.19;;;5.65;55.60
23339;BME280;11841;49.368;20.962;2023-02-20T00:58:54;96065.00;;;5.81;55.65
23339;BME280;11841;49.368;20.962;2023-02-20T01:01:21;96069.72;;;5.71;55.23
23339;BME280;11841;49.368;20.962;2023-02-20T01:03:48;96059.94;;;5.79;54.97
23339;BME280;11841;49.368;20.962;2023-02-20T01:06:14;96050.81;;;5.53;55.24
23339;BME280;11841;49.368;20.962;2023-02-20T01:08:41;96063.66;;;5.48;55.21
23339;BME280;11841;49.368;20.962;2023-02-20T01:11:07;96064.81;;;5.68;54.78
23339;BME280;11841;49.368;20.962;2023-02-20T01:13:33;96060.38;;;5.68;55.11
23339;BME280;11841;49.368;20.962;2023-02-20T01:16:00;96060.88;;;5.64;55.25
23339;BME280;11841;49.368;20.962;2023-02-20T01:18:26;96059.19;;;5.71;55.06
23339;BME280;11841;49.368;20.962;2023-02-20T01:20:53;96040.78;;;5.71;55.08
23339;BME280;11841;49.368;20.962;2023-02-20T01:23:19;96050.28;;;5.72;55.00
23339;BME280;11841;49.368;20.962;2023-02-20T01:25:46;96040.78;;;5.71;54.92
23339;BME280;11841;49.368;20.962;2023-02-20T01:28:12;96059.19;;;5.71;54.80
23339;BME280;11841;49.368;20.962;2023-02-20T01:30:39;96063.38;;;5.80;54.60
23339;BME280;11841;49.368;20.962;2023-02-20T01:33:05;96045.28;;;5.85;54.51
23339;BME280;11841;49.368;20.962;2023-02-20T01:35:32;96053.81;;;5.87;54.44
23339;BME280;11841;49.368;20.962;2023-02-20T01:37:58;96053.22;;;5.77;54.59
23339;BME280;11841;49.368;20.962;2023-02-20T01:40:25;96054.50;;;5.81;54.49
23339;BME280;11841;49.368;20.962;2023-02-20T01:42:52;96065.69;;;5.83;54.37
23339;BME280;11841;49.368;20.962;2023-02-20T01:47:50;96072.34;;;5.71;54.28
23339;BME280;11841;49.368;20.962;2023-02-20T01:50:18;96071.59;;;5.40;54.29
23339;BME280;11841;49.368;20.962;2023-02-20T01:52:50;96078.03;;;5.60;54.38
23339;BME280;11841;49.368;20.962;2023-02-20T01:57:47;96067.53;;;5.60;54.38
23339;BME280;11841;49.368;20.962;2023-02-20T02:00:15;96063.09;;;5.75;54.14
23339;BME280;11841;49.368;20.962;2023-02-20T02:02:45;96063.06;;;5.60;53.80
23339;BME280;11841;49.368;20.962;2023-02-20T02:05:13;96082.75;;;5.64;54.06
23339;BME280;11841;49.368;20.962;2023-02-20T02:07:39;96067.94;;;5.86;53.96
23339;BME280;11841;49.368;20.962;2023-02-20T02:10:07;96049.13;;;5.74;53.93
23339;BME280;11841;49.368;20.962;2023-02-20T02:12:35;96057.63;;;5.84;53.98
23339;BME280;11841;49.368;20.962;2023-02-20T02:15:02;96055.25;;;5.89;53.97
23339;BME280;11841;49.368;20.962;2023-02-20T02:35:37;96057.78;;;5.83;53.47
23339;BME280;11841;49.368;20.962;2023-02-20T02:43:08;96038.59;;;5.97;53.41
23339;BME280;11841;49.368;20.962;2023-02-20T02:50:35;96047.56;;;6.17;53.07
23339;BME280;11841;49.368;20.962;2023-02-20T02:53:03;96043.28;;;6.16;53.72
23339;BME280;11841;49.368;20.962;2023-02-20T02:55:31;96043.13;;;6.18;54.11
23339;BME280;11841;49.368;20.962;2023-02-20T02:58:02;96054.28;;;6.20;53.83
23339;BME280;11841;49.368;20.962;2023-02-20T03:05:33;96059.81;;;6.25;53.88
23339;BME280;11841;49.368;20.962;2023-02-20T03:08:16;96056.03;;;6.27;53.89
23339;BME280;11841;49.368;20.962;2023-02-20T03:10:47;96054.09;;;6.21;54.20
23339;BME280;11841;49.368;20.962;2023-02-20T03:13:18;96049.84;;;6.20;54.30
23339;BME280;11841;49.368;20.962;2023-02-20T03:15:46;96052.66;;;6.19;54.27
23339;BME280;11841;49.368;20.962;2023-02-20T03:18:49;96063.09;;;6.12;54.41
23339;BME280;11841;49.368;20.962;2023-02-20T03:21:11;96055.47;;;6.17;54.19
23339;BME280;11841;49.368;20.962;2023-02-20T03:23:39;96053.75;;;6.24;54.03
23339;BME280;11841;49.368;20.962;2023-02-20T03:26:10;96051.91;;;6.25;54.16
23339;BME280;11841;49.368;20.962;2023-02-20T03:28:49;96046.19;;;6.21;53.99
23339;BME280;11841;49.368;20.962;2023-02-20T03:31:23;96023.59;;;6.27;53.45
23339;BME280;11841;49.368;20.962;2023-02-20T03:33:57;96020.06;;;6.34;53.54
23339;BME280;11841;49.368;20.962;2023-02-20T03:36:46;96018.34;;;6.27;53.66
23339;BME280;11841;49.368;20.962;2023-02-20T03:39:35;96010.63;;;6.25;53.69
23339;BME280;11841;49.368;20.962;2023-02-20T03:42:21;96023.63;;;6.12;53.98
23339;BME280;11841;49.368;20.962;2023-02-20T03:45:07;96026.41;;;6.25;53.76
23339;BME280;11841;49.368;20.962;2023-02-20T03:47:35;96022.50;;;6.21;53.95
23339;BME280;11841;49.368;20.962;2023-02-20T03:50:02;96014.97;;;6.18;53.92
23339;BME280;11841;49.368;20.962;2023-02-20T03:52:33;96013.88;;;6.27;53.60
23339;BME280;11841;49.368;20.962;2023-02-20T03:54:59;96021.34;;;6.09;54.23
23339;BME280;11841;49.368;20.962;2023-02-20T03:57:27;96013.59;;;6.07;54.48
23339;BME280;11841;49.368;20.962;2023-02-20T03:59:57;96018.44;;;6.04;54.82
23339;BME280;11841;49.368;20.962;2023-02-20T04:02:29;96024.22;;;5.99;54.78
23339;BME280;11841;49.368;20.962;2023-02-20T04:04:58;96032.84;;;6.08;54.71
23339;BME280;11841;49.368;20.962;2023-02-20T04:07:36;96016.25;;;5.93;54.88
23339;BME280;11841;49.368;20.962;2023-02-20T04:10:06;96023.03;;;5.87;54.74
23339;BME280;11841;49.368;20.962;2023-02-20T04:12:38;96023.97;;;5.94;54.85
23339;BME280;11841;49.368;20.962;2023-02-20T04:15:07;96027.19;;;5.82;55.17
23339;BME280;11841;49.368;20.962;2023-02-20T04:17:37;96028.66;;;5.84;55.20
23339;BME280;11841;49.368;20.962;2023-02-20T04:20:05;96026.03;;;5.84;55.25
23339;BME280;11841;49.368;20.962;2023-02-20T04:22:34;96024.22;;;5.85;54.60
23339;BME280;11841;49.368;20.962;2023-02-20T04:25:09;96028.19;;;5.81;54.85
23339;BME280;11841;49.368;20.962;2023-02-20T04:27:38;96023.66;;;5.75;55.18
23339;BME280;11841;49.368;20.962;2023-02-20T04:30:05;96031.00;;;5.79;55.12
23339;BME280;11841;49.368;20.962;2023-02-20T04:32:31;96032.31;;;5.83;54.79
23339;BME280;11841;49.368;20.962;2023-02-20T04:34:58;96033.31;;;5.97;54.84
23339;BME280;11841;49.368;20.962;2023-02-20T04:37:24;96021.16;;;5.96;54.50
23339;BME280;11841;49.368;20.962;2023-02-20T04:39:51;96014.38;;;5.79;55.24
23339;BME280;11841;49.368;20.962;2023-02-20T04:42:17;96018.38;;;5.75;55.51
23339;BME280;11841;49.368;20.962;2023-02-20T04:44:44;96018.09;;;5.70;55.71
23339;BME280;11841;49.368;20.962;2023-02-20T04:47:11;96023.19;;;5.71;55.96
23339;BME280;11841;49.368;20.962;2023-02-20T04:49:38;96017.81;;;5.65;56.16
23339;BME280;11841;49.368;20.962;2023-02-20T04:52:05;96013.81;;;5.54;56.60
23339;BME280;11841;49.368;20.962;2023-02-20T04:54:31;96010.00;;;5.57;56.44
23339;BME280;11841;49.368;20.962;2023-02-20T04:56:58;96009.06;;;5.50;56.78
23339;BME280;11841;49.368;20.962;2023-02-20T04:59:24;96010.72;;;5.51;57.08
23339;BME280;11841;49.368;20.962;2023-02-20T05:01:51;96008.63;;;5.46;57.07
23339;BME280;11841;49.368;20.962;2023-02-20T05:04:20;96012.97;;;5.54;56.84
23339;BME280;11841;49.368;20.962;2023-02-20T05:06:51;96006.66;;;5.63;56.83
23339;BME280;11841;49.368;20.962;2023-02-20T05:09:18;96005.91;;;5.54;56.67
23339;BME280;11841;49.368;20.962;2023-02-20T05:11:45;95999.13;;;5.60;56.57
23339;BME280;11841;49.368;20.962;2023-02-20T05:14:12;96003.31;;;5.69;56.25
23339;BME280;11841;49.368;20.962;2023-02-20T05:16:39;96009.38;;;5.69;56.29
23339;BME280;11841;49.368;20.962;2023-02-20T05:19:06;96007.50;;;5.63;56.10
23339;BME280;11841;49.368;20.962;2023-02-20T05:21:33;95998.69;;;5.56;56.92
23339;BME280;11841;49.368;20.962;2023-02-20T05:24:19;96001.31;;;5.71;56.39
23339;BME280;11841;49.368;20.962;2023-02-20T05:26:45;96001.78;;;5.74;56.21
23339;BME280;11841;49.368;20.962;2023-02-20T05:29:12;96003.75;;;5.72;56.48
23339;BME280;11841;49.368;20.962;2023-02-20T05:31:39;96003.56;;;5.74;56.87
23339;BME280;11841;49.368;20.962;2023-02-20T05:34:06;96000.75;;;5.61;56.70
23339;BME280;11841;49.368;20.962;2023-02-20T05:36:32;96008.84;;;5.59;56.92
23339;BME280;11841;49.368;20.962;2023-02-20T05:38:59;96007.19;;;5.58;56.93
23339;BME280;11841;49.368;20.962;2023-02-20T05:41:25;96012.00;;;5.55;57.22
23339;BME280;11841;49.368;20.962;2023-02-20T05:43:52;96011.19;;;5.54;57.08
23339;BME280;11841;49.368;20.962;2023-02-20T05:46:23;96002.28;;;5.55;57.29
23339;BME280;11841;49.368;20.962;2023-02-20T05:48:50;96009.19;;;5.56;57.22
23339;BME280;11841;49.368;20.962;2023-02-20T05:53:46;95995.03;;;5.57;57.71
23339;BME280;11841;49.368;20.962;2023-02-20T05:56:13;96008.00;;;5.44;57.91
23339;BME280;11841;49.368;20.962;2023-02-20T05:58:43;96011.66;;;5.35;58.30
23339;BME280;11841;49.368;20.962;2023-02-20T06:01:20;96010.28;;;5.25;58.43
23339;BME280;11841;49.368;20.962;2023-02-20T06:03:47;96004.78;;;5.34;58.19
23339;BME280;11841;49.368;20.962;2023-02-20T06:06:14;96007.94;;;5.30;58.11
23339;BME280;11841;49.368;20.962;2023-02-20T06:08:41;96008.56;;;5.32;58.13
23339;BME280;11841;49.368;20.962;2023-02-20T06:11:08;96008.22;;;5.35;58.01
23339;BME280;11841;49.368;20.962;2023-02-20T06:13:35;96005.88;;;5.40;57.97
23339;BME280;11841;49.368;20.962;2023-02-20T06:16:02;96016.53;;;5.46;57.53
23339;BME280;11841;49.368;20.962;2023-02-20T06:18:28;96027.91;;;5.39;57.94
23339;BME280;11841;49.368;20.962;2023-02-20T06:20:55;96041.53;;;5.42;57.95
23339;BME280;11841;49.368;20.962;2023-02-20T06:23:22;96043.69;;;5.39;57.47
23339;BME280;11841;49.368;20.962;2023-02-20T06:25:48;96052.31;;;5.47;57.77
23339;BME280;11841;49.368;20.962;2023-02-20T06:28:15;96048.69;;;5.48;57.20
23339;BME280;11841;49.368;20.962;2023-02-20T06:30:41;96044.22;;;5.34;57.83
23339;BME280;11841;49.368;20.962;2023-02-20T06:33:08;96037.66;;;5.30;57.83
23339;BME280;11841;49.368;20.962;2023-02-20T06:35:34;96042.47;;;5.27;57.72
23339;BME280;11841;49.368;20.962;2023-02-20T06:38:01;96051.06;;;5.21;57.60
23339;BME280;11841;49.368;20.962;2023-02-20T06:40:27;96053.34;;;5.24;57.79
23339;BME280;11841;49.368;20.962;2023-02-20T06:42:54;96051.69;;;5.23;57.68
23339;BME280;11841;49.368;20.962;2023-02-20T06:45:20;96061.09;;;5.17;57.66
23339;BME280;11841;49.368;20.962;2023-02-20T06:47:46;96061.97;;;5.10;58.05
23339;BME280;11841;49.368;20.962;2023-02-20T06:50:13;96055.75;;;5.03;58.30
23339;BME280;11841;49.368;20.962;2023-02-20T06:52:39;96056.41;;;5.05;57.65
23339;BME280;11841;49.368;20.962;2023-02-20T06:55:06;96043.63;;;5.02;58.19
23339;BME280;11841;49.368;20.962;2023-02-20T06:57:32;96055.81;;;4.94;57.99
23339;BME280;11841;49.368;20.962;2023-02-20T06:59:59;96054.88;;;4.87;58.20
23339;BME280;11841;49.368;20.962;2023-02-20T07:02:25;96056.53;;;4.88;58.04
23339;BME280;11841;49.368;20.962;2023-02-20T07:04:52;96059.47;;;4.93;58.06
23339;BME280;11841;49.368;20.962;2023-02-20T07:07:18;96047.66;;;4.89;58.39
23339;BME280;11841;49.368;20.962;2023-02-20T07:09:45;96059.09;;;4.97;57.54
23339;BME280;11841;49.368;20.962;2023-02-20T07:12:11;96073.47;;;5.09;57.44
23339;BME280;11841;49.368;20.962;2023-02-20T07:14:38;96066.84;;;5.21;57.42
23339;BME280;11841;49.368;20.962;2023-02-20T07:17:04;96072.69;;;5.31;56.31
23339;BME280;11841;49.368;20.962;2023-02-20T07:19:31;96065.75;;;5.30;56.23
23339;BME280;11841;49.368;20.962;2023-02-20T07:21:59;96050.47;;;5.11;55.32
23339;BME280;11841;49.368;20.962;2023-02-20T07:24:25;96059.91;;;5.20;55.42
23339;BME280;11841;49.368;20.962;2023-02-20T07:26:53;96050.94;;;5.37;54.44
23339;BME280;11841;49.368;20.962;2023-02-20T07:29:23;96050.16;;;5.51;54.13
23339;BME280;11841;49.368;20.962;2023-02-20T07:31:49;96052.06;;;5.57;53.88
23339;BME280;11841;49.368;20.962;2023-02-20T07:34:16;96053.06;;;5.56;54.36
23339;BME280;11841;49.368;20.962;2023-02-20T07:36:42;96049.44;;;5.57;54.56
23339;BME280;11841;49.368;20.962;2023-02-20T07:39:09;96055.88;;;5.54;54.60
23339;BME280;11841;49.368;20.962;2023-02-20T07:41:35;96048.47;;;5.58;54.55
23339;BME280;11841;49.368;20.962;2023-02-20T07:44:02;96052.31;;;5.47;54.10
23339;BME280;11841;49.368;20.962;2023-02-20T07:46:29;96046.69;;;5.73;54.29
23339;BME280;11841;49.368;20.962;2023-02-20T07:49:00;96042.13;;;5.67;54.04
23339;BME280;11841;49.368;20.962;2023-02-20T07:51:26;96040.47;;;5.88;53.80
23339;BME280;11841;49.368;20.962;2023-02-20T07:53:52;96030.97;;;6.02;53.85
23339;BME280;11841;49.368;20.962;2023-02-20T07:56:20;96034.56;;;6.01;54.15
23339;BME280;11841;49.368;20.962;2023-02-20T07:58:47;96036.31;;;6.23;53.89
23339;BME280;11841;49.368;20.962;2023-02-20T08:01:14;96015.50;;;6.28;53.59
23339;BME280;11841;49.368;20.962;2023-02-20T08:03:40;96015.25;;;6.23;52.88
23339;BME280;11841;49.368;20.962;2023-02-20T08:06:07;96003.72;;;6.24;52.58
23339;BME280;11841;49.368;20.962;2023-02-20T08:08:34;96006.56;;;6.23;52.70
23339;BME280;11841;49.368;20.962;2023-02-20T08:11:00;96007.25;;;6.17;52.82
23339;BME280;11841;49.368;20.962;2023-02-20T08:13:35;95994.38;;;6.22;52.87
23339;BME280;11841;49.368;20.962;2023-02-20T08:16:01;95985.56;;;6.29;53.00
23339;BME280;11841;49.368;20.962;2023-02-20T08:18:28;95992.28;;;6.17;52.02
23339;BME280;11841;49.368;20.962;2023-02-20T08:20:54;96003.28;;;6.21;52.74
23339;BME280;11841;49.368;20.962;2023-02-20T08:23:21;96003.44;;;6.34;52.74
23339;BME280;11841;49.368;20.962;2023-02-20T08:25:48;96002.72;;;6.40;52.92
23339;BME280;11841;49.368;20.962;2023-02-20T08:28:15;95994.63;;;6.41;52.57
23339;BME280;11841;49.368;20.962;2023-02-20T08:30:42;95975.19;;;6.42;52.96
23339;BME280;11841;49.368;20.962;2023-02-20T08:33:08;95989.56;;;6.25;52.87
23339;BME280;11841;49.368;20.962;2023-02-20T08:35:35;95983.91;;;6.28;52.81
23339;BME280;11841;49.368;20.962;2023-02-20T08:38:05;95981.91;;;6.30;53.52
23339;BME280;11841;49.368;20.962;2023-02-20T08:40:32;95981.22;;;6.36;53.15
23339;BME280;11841;49.368;20.962;2023-02-20T08:42:59;95975.41;;;6.26;52.96
23339;BME280;11841;49.368;20.962;2023-02-20T08:45:25;95982.28;;;6.27;53.25
23339;BME280;11841;49.368;20.962;2023-02-20T08:47:55;95981.09;;;6.44;53.23
23339;BME280;11841;49.368;20.962;2023-02-20T08:50:23;95969.53;;;6.45;52.74
23339;BME280;11841;49.368;20.962;2023-02-20T08:52:49;95955.94;;;6.42;52.24
23339;BME280;11841;49.368;20.962;2023-02-20T08:55:16;95958.63;;;6.48;52.19
23339;BME280;11841;49.368;20.962;2023-02-20T08:57:42;95956.50;;;6.37;52.42
23339;BME280;11841;49.368;20.962;2023-02-20T09:00:10;95950.25;;;6.59;51.86
23339;BME280;11841;49.368;20.962;2023-02-20T09:02:36;95942.13;;;6.75;51.62
23339;BME280;11841;49.368;20.962;2023-02-20T09:05:03;95931.91;;;6.87;51.53
23339;BME280;11841;49.368;20.962;2023-02-20T09:07:29;95924.31;;;6.98;51.25
23339;BME280;11841;49.368;20.962;2023-02-20T09:09:56;95909.22;;;6.92;50.94
23339;BME280;11841;49.368;20.962;2023-02-20T09:12:23;95905.31;;;7.09;51.01
23339;BME280;11841;49.368;20.962;2023-02-20T09:14:49;95898.00;;;7.05;50.26
23339;BME280;11841;49.368;20.962;2023-02-20T09:17:16;95899.00;;;7.31;50.76
23339;BME280;11841;49.368;20.962;2023-02-20T09:19:42;95891.63;;;7.20;49.66
23339;BME280;11841;49.368;20.962;2023-02-20T09:22:09;95899.09;;;7.38;50.54
23339;BME280;11841;49.368;20.962;2023-02-20T09:24:35;95912.56;;;7.50;48.50
23339;BME280;11841;49.368;20.962;2023-02-20T09:27:03;95916.38;;;7.75;47.43
23339;BME280;11841;49.368;20.962;2023-02-20T09:29:31;95910.06;;;7.76;47.96
23339;BME280;11841;49.368;20.962;2023-02-20T09:31:58;95920.59;;;7.69;47.86
23339;BME280;11841;49.368;20.962;2023-02-20T09:34:24;95917.63;;;7.79;48.21
23339;BME280;11841;49.368;20.962;2023-02-20T09:36:51;95927.41;;;7.91;47.35
23339;BME280;11841;49.368;20.962;2023-02-20T09:39:20;95920.25;;;7.79;47.44
23339;BME280;11841;49.368;20.962;2023-02-20T09:42:04;95923.41;;;8.02;47.28
23339;BME280;11841;49.368;20.962;2023-02-20T09:46:59;95912.00;;;7.95;47.75
23339;BME280;11841;49.368;20.962;2023-02-20T09:49:29;95917.16;;;8.09;47.72
23339;BME280;11841;49.368;20.962;2023-02-20T09:51:59;95912.91;;;8.15;47.88
23339;BME280;11841;49.368;20.962;2023-02-20T09:54:29;95898.16;;;8.27;48.64
23339;BME280;11841;49.368;20.962;2023-02-20T09:56:58;95885.56;;;8.29;48.38
23339;BME280;11841;49.368;20.962;2023-02-20T09:59:27;95886.91;;;8.12;47.09
23339;BME280;11841;49.368;20.962;2023-02-20T10:01:56;95890.25;;;8.33;47.06
23339;BME280;11841;49.368;20.962;2023-02-20T10:04:25;95876.69;;;8.43;47.69
23339;BME280;11841;49.368;20.962;2023-02-20T10:06:53;95868.34;;;8.39;47.79
23339;BME280;11841;49.368;20.962;2023-02-20T10:09:23;95856.53;;;8.42;48.18
23339;BME280;11841;49.368;20.962;2023-02-20T10:22:04;95851.31;;;8.62;47.70
23339;BME280;11841;49.368;20.962;2023-02-20T10:29:49;95844.41;;;8.74;48.28
23339;BME280;11841;49.368;20.962;2023-02-20T10:32:35;95844.22;;;8.75;48.13
23339;BME280;11841;49.368;20.962;2023-02-20T10:35:10;95839.13;;;8.80;48.21
23339;BME280;11841;49.368;20.962;2023-02-20T10:37:43;95832.22;;;8.99;48.48
23339;BME280;11841;49.368;20.962;2023-02-20T10:42:42;95825.31;;;9.04;48.00
23339;BME280;11841;49.368;20.962;2023-02-20T10:47:46;95829.78;;;9.04;48.87
23339;BME280;11841;49.368;20.962;2023-02-20T10:50:28;95816.97;;;9.07;48.79
23339;BME280;11841;49.368;20.962;2023-02-20T10:52:57;95811.06;;;8.92;48.97
23339;BME280;11841;49.368;20.962;2023-02-20T10:58:09;95801.31;;;8.99;49.32
23339;BME280;11841;49.368;20.962;2023-02-20T11:00:40;95801.28;;;9.12;49.47
23339;BME280;11841;49.368;20.962;2023-02-20T11:03:14;95789.91;;;9.12;48.92
23339;BME280;11841;49.368;20.962;2023-02-20T11:05:45;95785.63;;;9.17;49.14
23339;BME280;11841;49.368;20.962;2023-02-20T11:08:13;95785.41;;;9.25;49.08
23339;BME280;11841;49.368;20.962;2023-02-20T11:10:39;95777.66;;;9.30;49.42
23339;BME280;11841;49.368;20.962;2023-02-20T11:13:07;95771.94;;;9.33;50.01
23339;BME280;11841;49.368;20.962;2023-02-20T11:15:39;95759.94;;;9.37;49.56
23339;BME280;11841;49.368;20.962;2023-02-20T11:18:29;95760.97;;;9.36;50.06
23339;BME280;11841;49.368;20.962;2023-02-20T11:20:57;95758.94;;;9.25;50.51
23339;BME280;11841;49.368;20.962;2023-02-20T11:28:44;95744.47;;;9.34;51.21
23339;BME280;11841;49.368;20.962;2023-02-20T11:31:19;95751.56;;;9.40;51.36
23339;BME280;11841;49.368;20.962;2023-02-20T11:33:47;95741.16;;;9.45;51.08
23339;BME280;11841;49.368;20.962;2023-02-20T11:36:16;95729.78;;;9.45;51.58
23339;BME280;11841;49.368;20.962;2023-02-20T11:38:46;95726.09;;;9.52;51.45
23339;BME280;11841;49.368;20.962;2023-02-20T11:41:21;95728.31;;;9.55;51.90
23339;BME280;11841;49.368;20.962;2023-02-20T11:44:15;95715.69;;;9.57;51.99
23339;BME280;11841;49.368;20.962;2023-02-20T11:46:42;95707.41;;;9.41;52.72
23339;BME280;11841;49.368;20.962;2023-02-20T11:49:23;95706.94;;;9.50;52.89
23339;BME280;11841;49.368;20.962;2023-02-20T11:51:50;95703.91;;;9.53;52.68
23339;BME280;11841;49.368;20.962;2023-02-20T11:59:37;95700.44;;;9.53;53.54
23339;BME280;11841;49.368;20.962;2023-02-20T12:04:43;95702.25;;;9.52;54.81
23339;BME280;11841;49.368;20.962;2023-02-20T12:07:16;95694.50;;;9.57;54.86
23339;BME280;11841;49.368;20.962;2023-02-20T12:09:45;95692.53;;;9.46;55.56
23339;BME280;11841;49.368;20.962;2023-02-20T12:12:14;95700.69;;;9.38;55.84
23339;BME280;11841;49.368;20.962;2023-02-20T12:14:41;95688.50;;;9.37;56.07
23339;BME280;11841;49.368;20.962;2023-02-20T12:22:16;95681.16;;;9.39;56.75
23339;BME280;11841;49.368;20.962;2023-02-20T12:27:45;95675.88;;;9.39;57.03
23339;BME280;11841;49.368;20.962;2023-02-20T12:35:30;95670.69;;;9.07;58.33
23339;BME280;11841;49.368;20.962;2023-02-20T12:38:12;95675.38;;;9.05;59.33
23339;BME280;11841;49.368;20.962;2023-02-20T12:51:08;95650.63;;;9.43;57.37
23339;BME280;11841;49.368;20.962;2023-02-20T12:53:43;95642.28;;;9.33;57.98
23339;BME280;11841;49.368;20.962;2023-02-20T12:56:19;95632.81;;;9.19;58.60
23339;BME280;11841;49.368;20.962;2023-02-20T13:01:18;95623.50;;;9.04;59.28
23339;BME280;11841;49.368;20.962;2023-02-20T13:06:26;95615.66;;;9.28;58.87
23339;BME280;11841;49.368;20.962;2023-02-20T13:08:55;95609.38;;;9.29;58.69
23339;BME280;11841;49.368;20.962;2023-02-20T13:11:24;95603.03;;;9.30;58.90
23339;BME280;11841;49.368;20.962;2023-02-20T13:14:03;95601.19;;;9.37;58.90
23339;BME280;11841;49.368;20.962;2023-02-20T13:16:51;95575.81;;;9.23;59.20
23339;BME280;11841;49.368;20.962;2023-02-20T13:21:46;95562.53;;;9.36;59.13
23339;BME280;11841;49.368;20.962;2023-02-20T13:26:53;95556.28;;;9.24;59.63
23339;BME280;11841;49.368;20.962;2023-02-20T13:29:22;95550.13;;;9.30;59.78
23339;BME280;11841;49.368;20.962;2023-02-20T13:31:52;95557.41;;;9.41;59.55
23339;BME280;11841;49.368;20.962;2023-02-20T13:36:46;95516.25;;;9.45;59.53
23339;BME280;11841;49.368;20.962;2023-02-20T13:47:12;95505.75;;;9.63;59.11
23339;BME280;11841;49.368;20.962;2023-02-20T13:49:54;95494.19;;;9.58;59.27
23339;BME280;11841;49.368;20.962;2023-02-20T13:52:40;95484.66;;;9.50;59.70
23339;BME280;11841;49.368;20.962;2023-02-20T13:57:46;95470.97;;;9.60;59.37
23339;BME280;11841;49.368;20.962;2023-02-20T14:00:23;95461.06;;;9.73;58.96
23339;BME280;11841;49.368;20.962;2023-02-20T14:02:50;95471.66;;;9.73;58.72
23339;BME280;11841;49.368;20.962;2023-02-20T14:05:35;95477.28;;;9.84;58.48
23339;BME280;11841;49.368;20.962;2023-02-20T14:08:01;95473.75;;;9.90;58.57
23339;BME280;11841;49.368;20.962;2023-02-20T14:15:24;95458.38;;;9.98;58.21
23339;BME280;11841;49.368;20.962;2023-02-20T14:17:51;95450.66;;;9.97;58.38
23339;BME280;11841;49.368;20.962;2023-02-20T14:20:21;95451.59;;;10.09;58.06
23339;BME280;11841;49.368;20.962;2023-02-20T14:22:48;95450.19;;;10.06;58.05
23339;BME280;11841;49.368;20.962;2023-02-20T14:25:23;95448.94;;;10.09;58.11
23339;BME280;11841;49.368;20.962;2023-02-20T14:27:50;95447.56;;;10.24;57.65
23339;BME280;11841;49.368;20.962;2023-02-20T14:30:21;95453.06;;;10.23;57.83
23339;BME280;11841;49.368;20.962;2023-02-20T14:32:52;95438.03;;;10.17;58.03
23339;BME280;11841;49.368;20.962;2023-02-20T14:36:04;95414.94;;;10.24;57.99
23339;BME280;11841;49.368;20.962;2023-02-20T14:40:37;95406.09;;;10.48;57.46
23339;BME280;11841;49.368;20.962;2023-02-20T14:43:24;95399.78;;;10.31;57.95
23339;BME280;11841;49.368;20.962;2023-02-20T14:46:00;95406.53;;;10.45;57.58
23339;BME280;11841;49.368;20.962;2023-02-20T14:48:31;95396.53;;;10.29;57.58
23339;BME280;11841;49.368;20.962;2023-02-20T14:51:02;95410.16;;;10.32;57.58
23339;BME280;11841;49.368;20.962;2023-02-20T14:53:29;95389.47;;;10.41;57.39
23339;BME280;11841;49.368;20.962;2023-02-20T14:55:56;95396.22;;;10.37;57.16
23339;BME280;11841;49.368;20.962;2023-02-20T14:58:22;95387.28;;;10.38;57.25
23339;BME280;11841;49.368;20.962;2023-02-20T15:00:49;95380.97;;;10.50;57.01
23339;BME280;11841;49.368;20.962;2023-02-20T15:03:25;95399.63;;;10.44;57.26
23339;BME280;11841;49.368;20.962;2023-02-20T15:06:00;95392.97;;;10.53;56.94
23339;BME280;11841;49.368;20.962;2023-02-20T15:08:30;95376.63;;;10.56;56.96
23339;BME280;11841;49.368;20.962;2023-02-20T15:10:57;95355.41;;;10.56;56.94
23339;BME280;11841;49.368;20.962;2023-02-20T15:13:34;95361.44;;;10.63;56.93
23339;BME280;11841;49.368;20.962;2023-02-20T15:16:05;95351.03;;;10.50;57.32
23339;BME280;11841;49.368;20.962;2023-02-20T15:20:59;95338.16;;;10.65;56.75
23339;BME280;11841;49.368;20.962;2023-02-20T15:23:27;95335.28;;;10.66;56.89
23339;BME280;11841;49.368;20.962;2023-02-20T15:25:55;95323.75;;;10.61;56.84